createdAt,value
2023-05-10T00:00:21.493Z,100722.66
2023-05-10T00:02:49.442Z,100729.63
2023-05-10T00:05:17.197Z,100723.50
2023-05-10T00:07:45.869Z,100722.56
2023-05-10T00:10:14.056Z,100733.06
2023-05-10T00:12:41.887Z,100725.19
2023-05-10T00:15:10.492Z,100719.91
2023-05-10T00:17:38.100Z,100717.38
2023-05-10T00:23:04.216Z,100723.56
2023-05-10T00:25:31.912Z,100719.91
2023-05-10T00:27:59.532Z,100724.34
2023-05-10T00:30:27.048Z,100721.72
2023-05-10T00:32:54.673Z,100718.22
2023-05-10T00:35:22.706Z,100718.22
2023-05-10T00:37:50.278Z,100717.41
2023-05-10T00:40:18.066Z,100718.31
2023-05-10T00:42:50.229Z,100719.28
2023-05-10T00:45:17.858Z,100722.75
2023-05-10T00:47:45.918Z,100722.75
2023-05-10T00:50:14.582Z,100716.69
2023-05-10T00:52:43.757Z,100724.59
2023-05-10T00:55:13.275Z,100714.03
2023-05-10T00:57:41.119Z,100715.88
2023-05-10T01:00:09.587Z,100707.16
2023-05-10T01:02:37.272Z,100708.97
2023-05-10T01:05:06.183Z,100710.75
2023-05-10T01:07:33.793Z,100718.72
2023-05-10T01:10:01.461Z,100717.00
2023-05-10T01:12:29.480Z,100717.94
2023-05-10T01:14:58.265Z,100720.63
2023-05-10T01:17:26.899Z,100715.28
2023-05-10T01:19:54.932Z,100725.00
2023-05-10T01:22:46.916Z,100722.41
2023-05-10T01:25:54.946Z,100719.88
2023-05-10T01:29:07.144Z,100728.81
2023-05-10T01:32:12.073Z,100726.22
2023-05-10T01:34:55.670Z,100719.28
2023-05-10T01:37:37.126Z,100718.38
2023-05-10T01:40:20.793Z,100714.03
2023-05-10T01:43:00.834Z,100717.59
2023-05-10T01:45:38.699Z,100721.97
2023-05-10T01:48:15.865Z,100721.16
2023-05-10T01:50:47.313Z,100723.81
2023-05-10T01:53:21.269Z,100722.91
2023-05-10T01:55:53.574Z,100718.47
2023-05-10T01:58:33.644Z,100717.50
2023-05-10T02:01:04.906Z,100718.38
2023-05-10T02:03:37.409Z,100724.59
2023-05-10T02:06:13.442Z,100720.25
2023-05-10T02:08:42.603Z,100722.94
2023-05-10T02:11:14.291Z,100724.75
2023-05-10T02:13:44.509Z,100724.75
2023-05-10T02:16:14.609Z,100731.72
2023-05-10T02:18:42.764Z,100745.88
2023-05-10T02:21:13.992Z,100741.44
2023-05-10T02:23:43.578Z,100744.94
2023-05-10T02:26:14.372Z,100743.19
2023-05-10T02:28:44.094Z,100747.56
2023-05-10T02:31:13.020Z,100740.53
2023-05-10T02:33:41.955Z,100744.94
2023-05-10T02:36:12.891Z,100741.44
2023-05-10T02:38:42.127Z,100743.22
2023-05-10T02:41:12.367Z,100749.41
2023-05-10T02:43:42.892Z,100751.25
2023-05-10T02:46:10.769Z,100744.28
2023-05-10T02:48:39.273Z,100742.53
2023-05-10T02:51:09.304Z,100743.47
2023-05-10T02:53:44.169Z,100746.13
2023-05-10T02:56:26.257Z,100745.13
2023-05-10T02:58:53.735Z,100745.50
2023-05-10T03:01:21.327Z,100744.63
2023-05-10T03:03:48.992Z,100745.44
2023-05-10T03:06:17.445Z,100743.59
2023-05-10T03:08:46.238Z,100742.69
2023-05-10T03:11:32.923Z,100745.19
2023-05-10T03:14:38.048Z,100752.19
2023-05-10T03:17:29.345Z,100744.28
2023-05-10T03:20:05.497Z,100749.56
2023-05-10T03:22:41.978Z,100751.25
2023-05-10T03:25:12.673Z,100753.84
2023-05-10T03:27:46.167Z,100756.44
2023-05-10T03:30:15.729Z,100758.09
2023-05-10T03:32:43.536Z,100755.41
2023-05-10T03:35:14.084Z,100756.28
2023-05-10T03:37:41.907Z,100761.50
2023-05-10T03:40:11.190Z,100764.94
2023-05-10T03:42:41.506Z,100771.94
2023-05-10T03:45:10.706Z,100767.53
2023-05-10T03:47:38.385Z,100763.94
2023-05-10T03:50:07.278Z,100770.09
2023-05-10T03:52:36.061Z,100773.53
2023-05-10T03:55:04.674Z,100779.69
2023-05-10T03:57:32.682Z,100773.41
2023-05-10T04:00:01.353Z,100779.50
2023-05-10T04:02:29.119Z,100779.44
2023-05-10T04:04:57.475Z,100782.94
2023-05-10T04:07:25.164Z,100782.88
2023-05-10T04:09:53.252Z,100783.72
2023-05-10T04:12:20.944Z,100779.25
2023-05-10T04:14:48.569Z,100780.16
2023-05-10T04:17:16.513Z,100781.94
2023-05-10T04:19:44.090Z,100782.88
2023-05-10T04:22:11.735Z,100787.16
2023-05-10T04:24:39.259Z,100781.84
2023-05-10T04:27:06.757Z,100782.63
2023-05-10T04:29:34.316Z,100787.91
2023-05-10T04:32:01.877Z,100787.81
2023-05-10T04:34:29.630Z,100791.41
2023-05-10T04:36:57.223Z,100787.97
2023-05-10T04:39:24.775Z,100795.09
2023-05-10T04:41:52.346Z,100786.38
2023-05-10T04:44:19.835Z,100793.44
2023-05-10T04:46:47.409Z,100796.94
2023-05-10T04:49:15.426Z,100799.59
2023-05-10T04:51:42.936Z,100792.56
2023-05-10T04:54:11.264Z,100797.00
2023-05-10T04:56:38.944Z,100802.28
2023-05-10T04:59:06.499Z,100797.84
2023-05-10T05:01:34.300Z,100800.50
2023-05-10T05:04:02.438Z,100799.59
2023-05-10T05:06:30.359Z,100804.88
2023-05-10T05:08:57.977Z,100800.56
2023-05-10T05:11:31.701Z,100802.28
2023-05-10T05:14:00.244Z,100808.41
2023-05-10T05:16:28.046Z,100810.16
2023-05-10T05:18:55.689Z,100815.44
2023-05-10T05:21:23.268Z,100814.50
2023-05-10T05:23:51.201Z,100812.91
2023-05-10T05:26:18.793Z,100818.31
2023-05-10T05:28:46.340Z,100816.78
2023-05-10T05:31:14.843Z,100817.78
2023-05-10T05:33:42.486Z,100823.16
2023-05-10T05:36:10.460Z,100817.88
2023-05-10T05:38:38.256Z,100819.78
2023-05-10T05:41:05.829Z,100820.81
2023-05-10T05:43:34.110Z,100825.34
2023-05-10T05:46:03.121Z,100825.44
2023-05-10T05:48:31.742Z,100831.72
2023-05-10T05:50:59.324Z,100837.03
2023-05-10T05:53:27.110Z,100838.97
2023-05-10T05:55:56.723Z,100836.47
2023-05-10T05:58:25.413Z,100835.63
2023-05-10T06:00:53.660Z,100845.22
2023-05-10T06:03:26.234Z,100843.38
2023-05-10T06:05:53.868Z,100845.09
2023-05-10T06:08:21.582Z,100845.84
2023-05-10T06:10:49.305Z,100850.94
2023-05-10T06:13:16.920Z,100848.19
2023-05-10T06:15:51.999Z,100857.78
2023-05-10T06:18:19.543Z,100850.75
2023-05-10T06:20:47.245Z,100853.34
2023-05-10T06:23:14.808Z,100855.75
2023-05-10T06:25:42.684Z,100863.34
2023-05-10T06:28:10.402Z,100856.91
2023-05-10T06:30:38.086Z,100856.47
2023-05-10T06:33:05.857Z,100859.63
2023-05-10T06:35:34.513Z,100861.00
2023-05-10T06:38:02.087Z,100861.56
2023-05-10T06:40:29.714Z,100864.81
2023-05-10T06:43:05.701Z,100864.69
2023-05-10T06:45:33.361Z,100867.34
2023-05-10T06:48:01.026Z,100868.25
2023-05-10T06:50:28.601Z,100871.81
2023-05-10T06:52:56.729Z,100872.72
2023-05-10T06:55:31.117Z,100881.56
2023-05-10T06:57:58.881Z,100874.59
2023-05-10T07:00:26.920Z,100885.16
2023-05-10T07:02:54.636Z,100888.69
2023-05-10T07:05:22.986Z,100892.03
2023-05-10T07:07:50.816Z,100894.69
2023-05-10T07:10:18.692Z,100892.97
2023-05-10T07:12:46.303Z,100896.53
2023-05-10T07:15:14.022Z,100903.59
2023-05-10T07:17:43.234Z,100900.97
2023-05-10T07:20:13.237Z,100899.16
2023-05-10T07:22:40.782Z,100901.81
2023-05-10T07:25:08.769Z,100900.97
2023-05-10T07:27:36.278Z,100907.09
2023-05-10T07:30:04.244Z,100910.69
2023-05-10T07:32:32.546Z,100911.59
2023-05-10T07:35:00.397Z,100907.25
2023-05-10T07:37:27.953Z,100916.88
2023-05-10T07:39:55.552Z,100924.72
2023-05-10T07:42:23.065Z,100917.44
2023-05-10T07:44:50.613Z,100915.53
2023-05-10T07:47:18.141Z,100918.91
2023-05-10T07:49:45.764Z,100919.78
2023-05-10T07:52:13.304Z,100919.78
2023-05-10T07:54:40.802Z,100916.28
2023-05-10T07:57:08.310Z,100926.72
2023-05-10T07:59:35.864Z,100920.56
2023-05-10T08:02:03.488Z,100925.66
2023-05-10T08:04:31.184Z,100929.03
2023-05-10T08:07:00.926Z,100923.50
2023-05-10T08:09:34.733Z,100933.63
2023-05-10T08:12:12.756Z,100932.41
2023-05-10T08:14:50.558Z,100924.19
2023-05-10T08:17:24.704Z,100936.56
2023-05-10T08:19:52.456Z,100939.34
2023-05-10T08:22:20.010Z,100947.41
2023-05-10T08:24:50.905Z,100948.34
2023-05-10T08:27:18.569Z,100950.97
2023-05-10T08:29:50.177Z,100953.69
2023-05-10T08:32:18.811Z,100966.06
2023-05-10T08:34:51.566Z,100957.19
2023-05-10T08:37:46.364Z,100965.84
2023-05-10T08:40:16.445Z,100966.41
2023-05-10T08:42:56.464Z,100963.47
2023-05-10T08:45:26.036Z,100962.16
2023-05-10T08:47:54.302Z,100959.09
2023-05-10T08:50:22.967Z,100973.72
2023-05-10T08:52:58.379Z,100979.56
2023-05-10T08:55:26.068Z,100976.69
2023-05-10T08:57:54.717Z,100983.69
2023-05-10T09:00:24.098Z,100984.63
2023-05-10T09:02:53.629Z,100979.41
2023-05-10T09:05:21.398Z,100986.44
2023-05-10T09:07:48.970Z,100986.34
2023-05-10T09:10:19.275Z,100989.47
2023-05-10T09:12:49.276Z,100991.72
2023-05-10T09:15:20.166Z,100983.34
2023-05-10T09:17:50.866Z,100997.94
2023-05-10T09:20:18.754Z,101001.09
2023-05-10T09:22:46.348Z,101008.78
2023-05-10T09:25:18.391Z,101000.66
2023-05-10T09:27:48.752Z,100998.84
2023-05-10T09:30:29.863Z,101009.44
2023-05-10T09:32:59.463Z,101010.50
2023-05-10T09:35:33.136Z,101015.94
2023-05-10T09:38:04.922Z,101015.16
2023-05-10T09:40:33.451Z,101008.09
2023-05-10T09:43:11.784Z,101021.34
2023-05-10T09:45:39.462Z,101022.31
2023-05-10T09:48:07.520Z,101029.47
2023-05-10T09:50:35.508Z,101025.19
2023-05-10T09:53:04.843Z,101023.47
2023-05-10T09:55:47.059Z,101029.56
2023-05-10T09:58:15.484Z,101032.28
2023-05-10T10:00:46.374Z,101035.00
2023-05-10T10:03:21.261Z,101033.97
2023-05-10T10:05:49.732Z,101035.50
2023-05-10T10:08:19.002Z,101032.34
2023-05-10T10:10:47.953Z,101035.50
2023-05-10T10:13:16.536Z,101037.09
2023-05-10T10:15:45.648Z,101038.97
2023-05-10T10:18:16.630Z,101041.81
2023-05-10T10:20:44.767Z,101047.41
2023-05-10T10:23:12.400Z,101037.81
2023-05-10T10:25:40.752Z,101041.31
2023-05-10T10:28:53.233Z,101044.41
2023-05-10T10:31:42.906Z,101044.06
2023-05-10T10:34:24.934Z,101044.44
2023-05-10T10:36:52.676Z,101047.47
2023-05-10T10:39:22.097Z,101048.75
2023-05-10T10:41:59.033Z,101042.22
2023-05-10T10:44:34.651Z,101038.72
2023-05-10T10:47:31.986Z,101038.84
2023-05-10T10:50:02.723Z,101036.56
2023-05-10T10:52:44.270Z,101045.53
2023-05-10T10:55:17.867Z,101041.56
2023-05-10T10:57:51.920Z,101040.88
2023-05-10T11:00:41.810Z,101045.31
2023-05-10T11:03:15.774Z,101047.97
2023-05-10T11:05:45.603Z,101043.66
2023-05-10T11:08:26.693Z,101053.47
2023-05-10T11:11:01.797Z,101059.72
2023-05-10T11:13:41.568Z,101046.38
2023-05-10T11:16:27.969Z,101057.78
2023-05-10T11:19:10.471Z,101057.78
2023-05-10T11:21:50.045Z,101059.78
2023-05-10T11:24:21.665Z,101056.44
2023-05-10T11:26:52.754Z,101062.13
2023-05-10T11:29:21.063Z,101059.53
2023-05-10T11:31:50.578Z,101062.03
2023-05-10T11:34:26.171Z,101065.22
2023-05-10T11:36:55.875Z,101064.94
2023-05-10T11:44:11.385Z,101072.50
2023-05-10T11:46:57.457Z,101068.69
2023-05-10T11:49:48.178Z,101065.81
2023-05-10T11:52:22.809Z,101067.34
2023-05-10T11:55:04.595Z,101063.66
2023-05-10T11:57:41.510Z,101070.56
2023-05-10T12:00:22.775Z,101063.22
2023-05-10T12:02:53.607Z,101065.69
2023-05-10T12:05:25.403Z,101056.63
2023-05-10T12:08:15.866Z,101059.84
2023-05-10T12:10:46.229Z,101057.03
2023-05-10T12:13:23.670Z,101063.53
2023-05-10T12:15:51.519Z,101060.22
2023-05-10T12:18:27.183Z,101060.38
2023-05-10T12:21:11.381Z,101069.78
2023-05-10T12:23:46.142Z,101065.81
2023-05-10T12:26:32.849Z,101071.81
2023-05-10T12:29:19.081Z,101070.88
2023-05-10T12:31:59.235Z,101069.16
2023-05-10T12:34:39.556Z,101063.31
2023-05-10T12:37:08.292Z,101077.03
2023-05-10T12:39:44.575Z,101081.75
2023-05-10T12:42:16.670Z,101078.63
2023-05-10T12:45:06.501Z,101087.69
2023-05-10T12:47:35.532Z,101094.72
2023-05-10T12:50:10.683Z,101090.97
2023-05-10T12:52:54.809Z,101096.06
2023-05-10T12:55:25.177Z,101101.91
2023-05-10T12:58:31.458Z,101106.16
2023-05-10T13:01:36.063Z,101110.50
2023-05-10T13:04:12.327Z,101096.81
2023-05-10T13:06:40.130Z,101103.63
2023-05-10T13:09:08.002Z,101105.97
2023-05-10T13:11:35.720Z,101105.81
2023-05-10T13:14:04.332Z,101106.50
2023-05-10T13:16:32.858Z,101107.28
2023-05-10T13:19:00.565Z,101105.66
2023-05-10T13:21:28.834Z,101105.81
2023-05-10T13:23:56.558Z,101107.84
2023-05-10T13:26:24.142Z,101116.06
2023-05-10T13:28:52.745Z,101112.63
2023-05-10T13:31:20.397Z,101112.84
2023-05-10T13:33:47.950Z,101115.66
2023-05-10T13:36:15.576Z,101119.38
2023-05-10T13:38:43.240Z,101118.63
2023-05-10T13:41:11.512Z,101115.19
2023-05-10T13:43:39.011Z,101122.19
2023-05-10T13:46:06.647Z,101118.47
2023-05-10T13:48:35.261Z,101121.44
2023-05-10T13:51:04.721Z,101108.38
2023-05-10T13:53:32.273Z,101107.06
2023-05-10T13:55:59.756Z,101116.63
2023-05-10T13:58:30.632Z,101114.88
2023-05-10T14:00:58.873Z,101115.06
2023-05-10T14:03:26.515Z,101114.94
2023-05-10T14:05:54.129Z,101116.69
2023-05-10T14:08:21.728Z,101115.72
2023-05-10T14:10:49.870Z,101114.63
2023-05-10T14:13:17.432Z,101126.22
2023-05-10T14:15:45.156Z,101129.03
2023-05-10T14:18:12.767Z,101121.19
2023-05-10T14:20:40.892Z,101117.50
2023-05-10T14:23:10.505Z,101126.06
2023-05-10T14:25:41.587Z,101116.56
2023-05-10T14:28:09.296Z,101114.91
2023-05-10T14:30:37.438Z,101119.88
2023-05-10T14:33:05.121Z,101118.34
2023-05-10T14:35:32.850Z,101121.84
2023-05-10T14:38:00.511Z,101129.69
2023-05-10T14:40:28.037Z,101122.31
2023-05-10T14:42:55.715Z,101119.56
2023-05-10T14:45:23.949Z,101119.91
2023-05-10T14:47:51.632Z,101125.06
2023-05-10T14:50:35.269Z,101128.00
2023-05-10T14:53:04.302Z,101133.47
2023-05-10T14:55:31.899Z,101127.72
2023-05-10T14:57:59.819Z,101132.47
2023-05-10T15:00:30.231Z,101130.03
2023-05-10T15:02:58.506Z,101126.84
2023-05-10T15:05:26.539Z,101127.28
2023-05-10T15:07:54.532Z,101128.38
2023-05-10T15:10:22.528Z,101127.19
2023-05-10T15:12:51.408Z,101119.72
2023-05-10T15:15:19.066Z,101114.88
2023-05-10T15:17:46.976Z,101120.50
2023-05-10T15:20:14.593Z,101127.88
2023-05-10T15:22:42.173Z,101129.91
2023-05-10T15:25:10.670Z,101135.72
2023-05-10T15:27:38.320Z,101132.84
2023-05-10T15:30:07.347Z,101132.47
2023-05-10T15:32:34.845Z,101124.94
2023-05-10T15:35:02.760Z,101133.09
2023-05-10T15:37:30.482Z,101137.00
2023-05-10T15:40:04.306Z,101139.28
2023-05-10T15:42:37.283Z,101144.19
2023-05-10T15:45:06.028Z,101148.25
2023-05-10T15:47:33.960Z,101146.81
2023-05-10T15:50:01.597Z,101155.81
2023-05-10T15:52:29.311Z,101157.69
2023-05-10T15:54:57.882Z,101150.03
2023-05-10T15:57:25.552Z,101155.81
2023-05-10T15:59:53.611Z,101144.69
2023-05-10T16:02:22.489Z,101145.91
2023-05-10T16:04:50.336Z,101144.53
2023-05-10T16:07:18.036Z,101149.22
2023-05-10T16:09:45.817Z,101153.81
2023-05-10T16:12:13.445Z,101159.25
2023-05-10T16:14:41.155Z,101156.47
2023-05-10T16:17:08.736Z,101159.84
2023-05-10T16:19:36.288Z,101168.38
2023-05-10T16:22:03.969Z,101167.22
2023-05-10T16:24:31.570Z,101168.72
2023-05-10T16:26:59.319Z,101174.69
2023-05-10T16:29:26.985Z,101165.63
2023-05-10T16:31:55.031Z,101176.03
2023-05-10T16:34:24.387Z,101175.81
2023-05-10T16:36:54.042Z,101176.59
2023-05-10T16:39:21.581Z,101177.38
2023-05-10T16:41:51.271Z,101178.31
2023-05-10T16:44:20.415Z,101185.63
2023-05-10T16:46:48.879Z,101187.59
2023-05-10T16:49:16.843Z,101184.00
2023-05-10T16:51:44.410Z,101189.19
2023-05-10T16:54:12.003Z,101189.25
2023-05-10T16:56:39.577Z,101200.94
2023-05-10T16:59:07.175Z,101201.78
2023-05-10T17:01:34.849Z,101193.75
2023-05-10T17:04:03.220Z,101203.38
2023-05-10T17:06:31.209Z,101193.53
2023-05-10T17:08:58.783Z,101199.63
2023-05-10T17:11:26.324Z,101203.06
2023-05-10T17:13:53.930Z,101191.72
2023-05-10T17:16:21.670Z,101195.34
2023-05-10T17:18:49.421Z,101195.28
2023-05-10T17:21:17.106Z,101209.41
2023-05-10T17:23:44.649Z,101204.09
2023-05-10T17:26:12.450Z,101192.63
2023-05-10T17:28:39.980Z,101198.06
2023-05-10T17:31:07.791Z,101193.75
2023-05-10T17:33:35.323Z,101197.34
2023-05-10T17:36:02.866Z,101193.91
2023-05-10T17:38:30.500Z,101204.69
2023-05-10T17:40:58.106Z,101206.66
2023-05-10T17:43:26.116Z,101201.81
2023-05-10T17:45:53.747Z,101208.47
2023-05-10T17:48:22.042Z,101207.13
2023-05-10T17:50:51.102Z,101208.31
2023-05-10T17:53:19.427Z,101205.94
2023-05-10T17:55:47.138Z,101205.28
2023-05-10T17:58:14.784Z,101213.53
2023-05-10T18:00:42.556Z,101215.66
2023-05-10T18:03:11.541Z,101211.41
2023-05-10T18:05:39.521Z,101216.03
2023-05-10T18:08:07.574Z,101211.06
2023-05-10T18:10:39.334Z,101222.69
2023-05-10T18:13:08.932Z,101210.50
2023-05-10T18:15:37.117Z,101219.53
2023-05-10T18:18:07.804Z,101229.31
2023-05-10T18:20:43.487Z,101213.56
2023-05-10T18:23:11.220Z,101220.78
2023-05-10T18:25:39.068Z,101221.78
2023-05-10T18:28:08.135Z,101225.44
2023-05-10T18:30:35.690Z,101219.25
2023-05-10T18:33:03.513Z,101222.84
2023-05-10T18:35:31.211Z,101229.94
2023-05-10T18:37:59.163Z,101227.34
2023-05-10T18:40:27.608Z,101235.34
2023-05-10T18:42:55.323Z,101225.84
2023-05-10T18:45:22.915Z,101226.84
2023-05-10T18:47:50.471Z,101231.41
2023-05-10T18:50:19.698Z,101227.97
2023-05-10T18:52:47.459Z,101229.03
2023-05-10T18:55:15.259Z,101234.47
2023-05-10T18:57:43.035Z,101238.16
2023-05-10T19:00:12.606Z,101239.16
2023-05-10T19:02:40.595Z,101237.59
2023-05-10T19:05:09.403Z,101249.25
2023-05-10T19:07:37.138Z,101248.56
2023-05-10T19:10:05.286Z,101250.53
2023-05-10T19:12:32.994Z,101250.72
2023-05-10T19:15:00.787Z,101242.09
2023-05-10T19:17:28.696Z,101258.16
2023-05-10T19:19:56.691Z,101251.25
2023-05-10T19:22:36.153Z,101257.66
2023-05-10T19:25:13.034Z,101262.28
2023-05-10T19:27:40.802Z,101256.19
2023-05-10T19:30:09.154Z,101251.84
2023-05-10T19:32:36.852Z,101256.41
2023-05-10T19:35:05.133Z,101263.59
2023-05-10T19:37:32.781Z,101263.78
2023-05-10T19:40:00.377Z,101257.00
2023-05-10T19:42:27.997Z,101264.28
2023-05-10T19:44:55.605Z,101271.47
2023-05-10T19:47:23.223Z,101277.88
2023-05-10T19:49:50.969Z,101274.56
2023-05-10T19:52:18.814Z,101278.38
2023-05-10T19:54:46.401Z,101279.44
2023-05-10T19:57:14.189Z,101272.56
2023-05-10T19:59:41.705Z,101278.00
2023-05-10T20:02:09.319Z,101277.19
2023-05-10T20:04:36.850Z,101272.91
2023-05-10T20:07:04.363Z,101285.38
2023-05-10T20:09:31.915Z,101285.50
2023-05-10T20:11:59.645Z,101281.22
2023-05-10T20:14:27.235Z,101284.78
2023-05-10T20:16:54.923Z,101288.38
2023-05-10T20:19:27.349Z,101287.53
2023-05-10T20:21:56.168Z,101291.19
2023-05-10T20:24:24.003Z,101289.44
2023-05-10T20:26:51.959Z,101290.31
2023-05-10T20:29:19.902Z,101285.94
2023-05-10T20:31:47.542Z,101291.25
2023-05-10T20:34:15.323Z,101280.72
2023-05-10T20:36:42.844Z,101284.28
2023-05-10T20:39:10.724Z,101290.47
2023-05-10T20:41:39.230Z,101286.16
2023-05-10T20:44:06.938Z,101287.06
2023-05-10T20:46:34.718Z,101288.00
2023-05-10T20:49:02.558Z,101288.06
2023-05-10T20:51:30.518Z,101284.69
2023-05-10T20:53:58.134Z,101285.63
2023-05-10T20:56:26.829Z,101287.53
2023-05-10T20:58:54.385Z,101284.91
2023-05-10T21:01:22.107Z,101291.09
2023-05-10T21:03:49.722Z,101295.50
2023-05-10T21:06:17.284Z,101294.59
2023-05-10T21:08:44.888Z,101293.72
2023-05-10T21:11:12.538Z,101284.09
2023-05-10T21:13:40.115Z,101292.88
2023-05-10T21:16:07.773Z,101291.13
2023-05-10T21:18:36.019Z,101292.91
2023-05-10T21:21:03.852Z,101286.78
2023-05-10T21:23:33.775Z,101291.13
2023-05-10T21:26:05.824Z,101301.69
2023-05-10T21:28:33.509Z,101299.97
2023-05-10T21:31:01.618Z,101298.16
2023-05-10T21:33:29.225Z,101292.91
2023-05-10T21:35:57.100Z,101296.41
2023-05-10T21:38:24.761Z,101294.66
2023-05-10T21:40:52.375Z,101296.38
2023-05-10T21:43:20.237Z,101296.38
2023-05-10T21:45:47.821Z,101302.50
2023-05-10T21:48:15.421Z,101298.16
2023-05-10T21:50:43.809Z,101291.13
2023-05-10T21:53:11.807Z,101296.41
2023-05-10T21:55:39.546Z,101298.16
2023-05-10T21:58:07.166Z,101292.91
2023-05-10T22:00:35.554Z,101296.41
2023-05-10T22:03:03.242Z,101294.69
2023-05-10T22:05:30.861Z,101303.53
2023-05-10T22:07:58.505Z,101297.38
2023-05-10T22:10:26.087Z,101296.53
2023-05-10T22:12:53.713Z,101296.53
2023-05-10T22:15:21.390Z,101295.66
2023-05-10T22:17:48.946Z,101304.50
2023-05-10T22:20:16.996Z,101303.63
2023-05-10T22:22:45.340Z,101301.84
2023-05-10T22:25:12.871Z,101301.84
2023-05-10T22:27:40.778Z,101300.94
2023-05-10T22:30:09.309Z,101298.34
2023-05-10T22:32:36.979Z,101306.28
2023-05-10T22:35:04.935Z,101307.09
2023-05-10T22:37:32.655Z,101313.22
2023-05-10T22:40:00.231Z,101312.38
2023-05-10T22:42:27.821Z,101312.38
2023-05-10T22:44:55.778Z,101311.53
2023-05-10T22:47:23.383Z,101317.53
2023-05-10T22:49:50.960Z,101314.06
2023-05-10T22:52:18.465Z,101316.69
2023-05-10T22:54:46.420Z,101315.84
2023-05-10T22:57:14.455Z,101315.84
2023-05-10T22:59:42.808Z,101310.56
2023-05-10T23:02:10.585Z,101313.22
2023-05-10T23:04:38.209Z,101308.81
2023-05-10T23:07:06.022Z,101311.44
2023-05-10T23:09:33.743Z,101316.72
2023-05-10T23:12:01.302Z,101314.97
2023-05-10T23:14:29.144Z,101318.47
2023-05-10T23:16:56.931Z,101309.72
2023-05-10T23:19:24.622Z,101312.38
2023-05-10T23:21:52.191Z,101315.06
2023-05-10T23:24:19.687Z,101308.97
2023-05-10T23:26:47.359Z,101309.78
2023-05-10T23:29:14.952Z,101313.34
2023-05-10T23:31:45.612Z,101310.75
2023-05-10T23:34:13.275Z,101306.34
2023-05-10T23:36:40.920Z,101309.00
2023-05-10T23:39:08.449Z,101305.50
2023-05-10T23:41:36.033Z,101307.28
2023-05-10T23:44:03.811Z,101304.59
2023-05-10T23:46:31.430Z,101305.53
2023-05-10T23:48:58.978Z,101305.53
2023-05-10T23:51:27.310Z,101310.81
2023-05-10T23:53:54.872Z,101309.97
2023-05-10T23:56:22.492Z,101316.13
2023-05-10T23:58:50.053Z,101315.25
